Latest Weather Observations for Wiluna Airport

IDW60801

Issued at 1:53 pm WST Friday 16 November 2018 (issued every 10 minutes, with the page automatically refreshed every 10 minutes)

About weather observations | Map of weather stations | Latest weather observations for WA | Other Formats
Station Details ID: 013044 Name: WILUNA AERO Lat: -26.63 Lon: 120.22 Height: 502.4 m
Data from the previous 72 hours. | See also: Recent months at Wiluna Airport
Date/Time
WST
Temp
°C
App
Temp
°C
Dew
Point
°C
Rel
Hum
%
Delta-T
°C
Wind Press
QNH
hPa
Press
MSL
hPa
Rain since
9am
mm
Dir  Spd
km/h
Gust
km/h
Spd
kts
Gust
kts
16/01:30pm 37.2 33.5 4.2 13 18.0 E 13 28 7 15 1014.3 1011.1 0.0
16/01:00pm 36.4 33.1 4.6 14 17.4 E 11 19 6 10 1014.7 1011.6 0.0
16/12:30pm 35.2 32.3 4.7 15 16.6 ESE 9 17 5 9 1015.2 1012.1 0.0
16/12:00pm 34.6 31.2 4.2 15 16.4 ENE 11 26 6 14 1015.8 1012.7 0.0
16/11:30am 35.3 30.3 4.8 15 16.6 E 20 32 11 17 1016.3 1013.2 0.0
16/11:00am 35.0 30.6 4.5 15 16.5 E 17 28 9 15 1017.0 1013.9 0.0
16/10:30am 34.6 29.7 4.2 15 16.4 E 19 26 10 14 1017.4 1014.3 0.0
16/10:00am 34.3 29.9 4.9 16 16.0 ENE 17 32 9 17 1017.6 1014.5 0.0
16/09:30am 32.7 28.6 4.5 17 15.1 ENE 15 22 8 12 1017.7 1014.6 0.0
16/09:00am 32.7 28.0 5.3 18 14.9 ENE 19 24 10 13 1017.9 1014.8 0.0
16/08:30am 32.0 27.2 5.5 19 14.4 ENE 20 35 11 19 1018.0 1015.0 0.0
16/08:00am 30.3 24.6 4.9 20 13.5 ENE 24 32 13 17 1018.0 1015.0 0.0
16/07:30am 29.7 24.5 5.7 22 12.9 ENE 22 32 12 17 1018.0 1015.0 0.0
16/07:00am 28.6 24.4 5.5 23 12.3 E 17 26 9 14 1018.1 1015.1 0.0
16/06:30am 27.5 23.4 6.3 26 11.4 E 17 20 9 11 1017.8 1014.7 0.0
16/06:00am 26.5 22.5 6.5 28 10.7 E 17 22 9 12 1017.6 1014.5 0.0
16/05:30am 26.6 23.0 6.6 28 10.7 E 15 17 8 9 1017.3 1014.2 0.0
16/05:00am 26.8 23.2 6.8 28 10.8 E 15 19 8 10 1017.2 1014.1 0.0
16/04:30am 27.3 24.1 6.7 27 11.1 E 13 19 7 10 1017.0 1013.9 0.0
16/04:00am 27.6 24.2 7.5 28 11.0 E 15 19 8 10 1016.5 1013.4 0.0
16/03:30am 28.0 24.4 8.3 29 11.0 ENE 17 22 9 12 1015.8 1012.7 0.0
16/03:00am 27.7 24.6 9.0 31 10.5 ESE 15 20 8 11 1016.0 1012.9 0.0
16/02:30am 27.6 25.3 9.0 31 10.5 E 11 17 6 9 1016.3 1013.2 0.0
16/02:00am 27.4 25.6 9.3 32 10.2 WNW 9 11 5 6 1016.9 1013.8 0.0
16/01:30am 28.6 26.2 8.8 29 11.1 WNW 11 13 6 7 1017.6 1014.5 0.0
16/01:00am 29.8 26.1 6.5 23 12.7 NW 15 22 8 12 1017.9 1014.8 0.0
16/12:30am 29.4 24.1 6.7 24 12.4 NW 24 41 13 22 1017.6 1014.5 0.0
16/12:00am 29.4 24.9 6.1 23 12.6 E 19 24 10 13 1016.4 1013.3 0.0
 
Date/Time
WST
Temp
°C
App
Temp
°C
Dew
Point
°C
Rel
Hum
%
Delta-T
°C
Wind Press
QNH
hPa
Press
MSL
hPa
Rain since
9am
mm
Dir  Spd
km/h
Gust
km/h
Spd
kts
Gust
kts
15/11:30pm 29.3 25.7 6.7 24 12.3 E 15 20 8 11 1016.3 1013.2 0.0
15/11:00pm 29.2 26.2 7.7 26 11.9 E 13 19 7 10 1016.3 1013.2 0.0
15/10:30pm 29.7 25.2 7.0 24 12.5 ESE 20 26 11 14 1016.0 1012.9 0.0
15/10:00pm 29.8 26.3 7.1 24 12.5 SE 15 20 8 11 1016.4 1013.3 0.0
15/09:30pm 31.0 27.0 6.8 22 13.3 E 17 22 9 12 1016.3 1013.2 0.0
15/09:00pm 31.3 26.9 6.4 21 13.7 ESE 19 26 10 14 1015.9 1012.8 0.0
15/08:30pm 31.2 26.7 6.3 21 13.6 ESE 19 26 10 14 1015.6 1012.5 0.0
15/08:00pm 32.5 28.9 5.1 18 14.8 E 13 15 7 8 1015.3 1012.2 0.0
15/07:30pm 33.1 30.0 5.6 18 15.0 ENE 11 13 6 7 1015.0 1011.9 0.0
15/07:00pm 33.8 30.5 4.5 16 15.8 ENE 11 13 6 7 1014.8 1011.7 0.0
15/06:30pm 34.7 30.8 3.3 14 16.7 E 13 17 7 9 1014.5 1011.4 0.0
15/06:00pm 35.4 31.8 2.8 13 17.3 SE 11 15 6 8 1014.2 1011.0 0.0
15/05:30pm 35.8 32.4 2.0 12 17.7 ESE 9 17 5 9 1014.1 1010.9 0.0
15/05:00pm 36.2 32.3 3.4 13 17.6 ENE 13 20 7 11 1014.1 1010.9 0.0
15/04:30pm 36.1 32.4 2.2 12 17.8 SW 11 15 6 8 1014.1 1010.9 0.0
15/04:00pm 36.8 32.8 2.8 12 18.1 NE 13 17 7 9 1014.3 1011.1 0.0
15/03:30pm 37.5 34.0 3.3 12 18.4 NE 11 17 6 9 1014.4 1011.3 0.0
15/03:00pm 37.0 33.8 2.9 12 18.2 N 9 19 5 10 1014.6 1011.5 0.0
15/02:30pm 36.4 32.3 4.6 14 17.4 ENE 15 26 8 14 1014.8 1011.7 0.0
15/02:00pm 36.3 33.4 4.6 14 17.3 N 9 17 5 9 1015.1 1012.0 0.0
15/01:30pm 35.8 31.7 4.2 14 17.1 E 15 22 8 12 1015.6 1012.5 0.0
15/01:00pm 35.6 31.1 4.0 14 17.1 NE 17 30 9 16 1016.0 1012.9 0.0
15/12:30pm 34.3 30.1 4.0 15 16.2 ENE 15 22 8 12 1016.6 1013.5 0.0
15/12:00pm 35.1 29.9 3.6 14 16.8 E 20 30 11 16 1016.9 1013.8 0.0
15/11:30am 33.8 28.8 3.6 15 16.0 ENE 19 33 10 18 1017.4 1014.3 0.0
15/11:00am 33.7 28.7 4.4 16 15.7 NE 20 32 11 17 1017.9 1014.8 0.0
15/10:30am 32.2 26.7 4.1 17 14.9 NE 22 32 12 17 1018.4 1015.3 0.0
15/10:00am 31.3 25.8 4.2 18 14.3 NE 22 32 12 17 1018.9 1015.8 0.0
15/09:30am 30.9 25.5 4.6 19 14.0 NE 22 30 12 16 1019.2 1016.1 0.0
15/09:00am 29.3 23.8 4.0 20 13.2 NE 22 32 12 17 1019.3 1016.2 0.0
15/08:30am 28.9 23.6 5.1 22 12.6 ENE 22 32 12 17 1019.3 1016.2 0.0
15/08:00am 27.8 22.2 5.4 24 11.8 ENE 24 32 13 17 1019.4 1016.3 0.0
15/07:30am 26.9 22.1 5.8 26 11.2 ENE 20 32 11 17 1019.2 1016.1 0.0
15/07:00am 25.3 20.5 5.5 28 10.3 ENE 20 33 11 18 1019.0 1015.9 0.0
15/06:30am 24.4 19.8 5.7 30 9.8 E 19 24 10 13 1018.9 1015.8 0.0
15/06:00am 23.4 20.2 6.7 34 8.8 ESE 13 15 7 8 1018.6 1015.5 0.0
15/05:30am 21.7 19.3 7.2 39 7.6 ESE 9 13 5 7 1018.4 1015.3 0.0
15/05:00am 22.4 19.1 6.6 36 8.3 ESE 13 15 7 8 1017.8 1014.7 0.0
15/04:30am 22.0 19.6 7.0 38 7.9 ESE 9 11 5 6 1017.6 1014.5 0.0
15/04:00am 22.7 20.5 7.7 38 8.0 ESE 9 11 5 6 1017.3 1014.2 0.0
15/03:30am 23.2 21.2 6.9 35 8.6 ESE 7 9 4 5 1017.0 1013.9 0.0
15/03:00am 23.7 20.4 6.5 33 9.1 ESE 13 17 7 9 1016.4 1013.3 0.0
15/02:30am 24.3 20.6 6.1 31 9.6 ESE 15 19 8 10 1016.3 1013.2 0.0
15/02:00am 24.6 20.9 6.4 31 9.6 E 15 20 8 11 1016.2 1013.0 0.0
15/01:30am 24.8 21.1 6.1 30 9.8 E 15 20 8 11 1015.9 1012.8 0.0
15/01:00am 25.2 20.8 6.4 30 10.0 ESE 19 22 10 12 1015.7 1012.6 0.0
15/12:30am 25.8 21.1 5.9 28 10.5 ESE 20 28 11 15 1015.7 1012.6 0.0
15/12:00am 26.0 21.3 6.1 28 10.5 ESE 20 24 11 13 1015.8 1012.7 0.0
 
Date/Time
WST
Temp
°C
App
Temp
°C
Dew
Point
°C
Rel
Hum
%
Delta-T
°C
Wind Press
QNH
hPa
Press
MSL
hPa
Rain since
9am
mm
Dir  Spd
km/h
Gust
km/h
Spd
kts
Gust
kts
14/11:30pm 25.7 21.7 6.8 30 10.1 ESE 17 20 9 11 1015.9 1012.8 0.0
14/11:00pm 26.2 21.9 6.8 29 10.4 ESE 19 24 10 13 1015.9 1012.8 0.0
14/10:30pm 27.0 22.0 6.4 27 11.0 ESE 22 30 12 16 1016.0 1012.9 0.0
14/10:00pm 27.4 22.1 6.8 27 11.1 ESE 24 32 13 17 1016.0 1012.9 0.0
14/09:30pm 27.8 22.2 7.1 27 11.3 SE 26 35 14 19 1016.3 1013.2 0.0
14/09:00pm 28.3 24.3 8.1 28 11.2 SE 19 26 10 14 1016.2 1013.0 0.0
14/08:30pm 29.0 25.3 8.1 27 11.7 SE 17 19 9 10 1015.9 1012.8 0.0
14/08:00pm 29.5 26.2 8.0 26 12.0 ESE 15 20 8 11 1015.7 1012.6 0.0
14/07:30pm 30.2 26.9 8.0 25 12.4 ESE 15 19 8 10 1015.4 1012.3 0.0
14/07:00pm 31.4 27.7 7.8 23 13.2 ESE 17 24 9 13 1015.2 1012.1 0.0
14/06:30pm 32.0 28.6 7.6 22 13.7 ESE 15 20 8 11 1014.8 1011.7 0.0
14/06:00pm 32.8 29.2 6.9 20 14.4 ESE 15 20 8 11 1014.6 1011.5 0.0
14/05:30pm 33.3 29.4 7.3 20 14.6 SE 17 20 9 11 1014.5 1011.4 0.0
14/05:00pm 33.7 30.1 6.9 19 15.0 ESE 15 20 8 11 1014.5 1011.4 0.0
14/04:30pm 33.4 31.3 6.6 19 14.9 SE 7 15 4 8 1014.5 1011.4 0.0
14/04:00pm 33.8 30.6 7.0 19 15.0 ESE 13 24 7 13 1014.5 1011.4 0.0
14/03:30pm 33.7 31.5 6.1 18 15.3 ESE 7 13 4 7 1014.7 1011.6 0.0
14/03:00pm 34.3 30.5 7.4 19 15.2 E 17 32 9 17 1014.9 1011.8 0.0
14/02:30pm 33.0 30.1 6.3 19 14.8 NE 11 17 6 9 1015.0 1011.9 0.0
14/02:00pm 33.4 30.9 6.6 19 14.9 E 9 20 5 11 1015.3 1012.2 0.0
14/01:30pm 33.5 30.8 7.5 20 14.7 E 11 20 6 11 1015.6 1012.5 0.0
14/01:00pm 32.0 28.8 7.0 21 13.9 NE 13 20 7 11 1015.9 1012.8 0.0
14/12:30pm 31.9 28.7 6.9 21 13.9 S 13 22 7 12 1016.4 1013.3 0.0
14/12:00pm 31.5 27.6 7.2 22 13.5 E 17 28 9 15 1016.7 1013.6 0.0
14/11:30am 31.0 27.0 8.1 24 12.9 E 19 28 10 15 1017.0 1013.9 0.0
14/11:00am 29.4 25.7 7.9 26 12.0 NE 17 26 9 14 1017.3 1014.2 0.0
14/10:30am 29.1 25.1 8.2 27 11.7 E 19 28 10 15 1017.6 1014.5 0.0
14/10:00am 29.0 25.1 8.7 28 11.4 ENE 19 26 10 14 1018.0 1015.0 0.0
14/09:30am 28.7 24.9 8.9 29 11.2 ENE 19 32 10 17 1018.1 1015.1 0.0
14/09:00am 27.6 23.6 9.0 31 10.4 ENE 20 28 11 15 1018.1 1015.1 0.0
14/08:30am 26.5 22.6 8.5 32 10.0 ENE 19 26 10 14 1018.0 1015.0 0.0
14/08:00am 25.8 21.0 8.8 34 9.4 ENE 24 35 13 19 1017.8 1014.7 0.0
14/07:30am 24.7 19.5 9.0 37 8.7 ENE 26 33 14 18 1017.9 1014.8 0.0
14/07:00am 23.4 19.9 10.1 43 7.4 E 19 26 10 14 1017.5 1014.4 0.0
14/06:30am 21.0 19.4 11.6 55 5.3 SE 11 13 6 7 1017.1 1014.0 0.0
14/06:00am 19.7 18.4 12.5 63 4.1 SE 11 13 6 7 1016.6 1013.5 0.0
14/05:30am 18.8 17.9 12.5 67 3.6 SE 9 13 5 7 1016.2 1013.0 0.0
14/05:00am 18.3 17.3 12.3 68 3.4 SE 9 11 5 6 1015.7 1012.6 0.0
14/04:30am 18.8 17.4 12.1 65 3.8 SE 11 13 6 7 1015.3 1012.2 0.0
14/04:00am 19.1 18.0 12.1 64 4.0 SE 9 11 5 6 1015.1 1012.0 0.0
14/03:30am 19.4 17.9 11.9 62 4.3 SE 11 13 6 7 1014.9 1011.8 0.0
14/03:00am 19.6 17.7 11.9 61 4.4 SE 13 15 7 8 1014.8 1011.7 0.0
14/02:30am 20.3 18.4 11.8 58 4.8 SE 13 17 7 9 1014.7 1011.6 0.0
14/02:00am 20.7 18.6 11.3 55 5.3 SE 13 17 7 9 1014.5 1011.4 0.0
14/01:30am 21.2 19.0 10.7 51 5.9 SE 13 17 7 9 1014.5 1011.4 0.0
14/01:00am 22.3 19.1 10.1 46 6.8 SE 17 22 9 12 1014.6 1011.5 0.0
14/12:30am 22.9 19.3 9.7 43 7.3 ESE 19 22 10 12 1014.9 1011.8 0.0
14/12:00am 23.0 19.7 9.4 42 7.5 ESE 17 22 9 12 1015.0 1011.9 0.0
 
Date/Time
WST
Temp
°C
App
Temp
°C
Dew
Point
°C
Rel
Hum
%
Delta-T
°C
Wind Press
QNH
hPa
Press
MSL
hPa
Rain since
9am
mm
Dir  Spd
km/h
Gust
km/h
Spd
kts
Gust
kts
13/11:30pm 23.2 19.7 8.9 40 7.8 SE 17 20 9 11 1015.2 1012.1 0.0
13/11:00pm 23.4 20.6 8.7 39 8.0 SE 13 17 7 9 1015.5 1012.4 0.0
13/10:30pm 23.6 20.0 8.5 38 8.2 SE 17 20 9 11 1015.7 1012.6 0.0
13/10:00pm 24.3 20.8 8.7 37 8.6 SE 17 20 9 11 1015.9 1012.8 0.0
13/09:30pm 25.1 21.0 8.6 35 9.1 SE 20 26 11 14 1016.0 1012.9 0.0
13/09:00pm 25.9 21.8 8.8 34 9.5 SE 20 26 11 14 1015.8 1012.7 0.0
13/08:30pm 26.4 22.5 8.8 33 9.8 SE 19 20 10 11 1015.4 1012.3 0.0
13/08:00pm 27.1 23.7 9.0 32 10.1 SE 17 22 9 12 1015.1 1012.0 0.0
13/07:30pm 27.3 24.4 8.2 30 10.6 SE 13 17 7 9 1014.8 1011.7 0.0
13/07:00pm 28.1 25.0 7.4 27 11.4 SE 13 15 7 8 1014.5 1011.4 0.0
13/06:30pm 29.2 25.8 6.0 23 12.5 SE 13 17 7 9 1013.9 1010.8 0.0
13/06:00pm 29.6 26.1 5.6 22 12.9 SE 13 20 7 11 1013.5 1010.4 0.0
13/05:30pm 30.1 26.7 6.1 22 13.0 SE 13 19 7 10 1013.1 1010.0 0.0
13/05:00pm 30.4 26.6 5.6 21 13.4 SE 15 24 8 13 1012.9 1009.8 0.0
13/04:30pm 30.2 27.5 5.5 21 13.3 SE 9 19 5 10 1012.9 1009.8 0.0
13/04:00pm 30.8 28.0 5.3 20 13.7 SE 9 13 5 7 1012.9 1009.8 0.0
13/03:30pm 30.5 27.1 5.7 21 13.4 SE 13 28 7 15 1013.1 1010.0 0.0
13/03:00pm 30.2 27.9 5.5 21 13.3 ENE 7 13 4 7 1013.3 1010.2 0.0
13/02:30pm 30.3 26.8 5.6 21 13.3 SSE 13 22 7 12 1013.5 1010.4 0.0
13/02:00pm 30.2 26.8 6.1 22 13.1 SSW 13 24 7 13 1013.7 1010.6 0.0

Other Formats:

Comma delimited format used in spreadsheet applications
http://www.bom.gov.au/fwo/IDW60801/IDW60801.95439.axf

JavaScript Object Notation format (JSON) in row-major order
http://www.bom.gov.au/fwo/IDW60801/IDW60801.95439.json